createdAt,value
2022-08-03T00:02:15.589Z,17.64
2022-08-03T00:04:42.746Z,17.65
2022-08-03T00:07:09.423Z,17.68
2022-08-03T00:09:36.946Z,17.67
2022-08-03T00:12:04.321Z,17.64
2022-08-03T00:14:31.251Z,17.58
2022-08-03T00:16:58.134Z,17.48
2022-08-03T00:19:25.146Z,17.41
2022-08-03T00:21:52.093Z,17.36
2022-08-03T00:24:19.063Z,17.35
2022-08-03T00:26:46.136Z,17.37
2022-08-03T00:29:13.350Z,17.41
2022-08-03T00:31:52.777Z,17.42
2022-08-03T00:34:36.472Z,17.40
2022-08-03T00:37:13.403Z,17.36
2022-08-03T00:39:40.452Z,17.30
2022-08-03T00:42:07.416Z,17.24
2022-08-03T00:44:44.293Z,17.17
2022-08-03T00:47:12.255Z,17.15
2022-08-03T00:49:41.017Z,17.15
2022-08-03T00:52:10.579Z,17.13
2022-08-03T00:54:38.652Z,17.12
2022-08-03T00:57:06.695Z,17.12
2022-08-03T00:59:34.138Z,17.15
2022-08-03T01:02:01.204Z,17.18
2022-08-03T01:04:28.048Z,17.20
2022-08-03T01:07:05.218Z,17.22
2022-08-03T01:09:55.222Z,17.25
2022-08-03T01:12:56.399Z,17.28
2022-08-03T01:15:58.152Z,17.25
2022-08-03T01:18:44.991Z,17.17
2022-08-03T01:21:25.312Z,17.14
2022-08-03T01:24:34.652Z,17.09
2022-08-03T01:27:17.576Z,17.07
2022-08-03T01:29:50.372Z,17.11
2022-08-03T01:32:53.494Z,17.12
2022-08-03T01:35:27.608Z,17.08
2022-08-03T01:38:02.670Z,17.03
2022-08-03T01:40:33.223Z,17.00
2022-08-03T01:43:03.308Z,16.95
2022-08-03T01:45:34.205Z,16.89
2022-08-03T01:48:03.522Z,16.87
2022-08-03T01:50:31.710Z,16.86
2022-08-03T01:52:59.652Z,16.86
2022-08-03T01:55:28.692Z,16.87
2022-08-03T01:58:05.178Z,16.93
2022-08-03T02:00:38.255Z,16.92
2022-08-03T02:03:06.980Z,16.93
2022-08-03T02:05:35.766Z,16.97
2022-08-03T02:08:04.693Z,16.96
2022-08-03T02:10:35.467Z,16.98
2022-08-03T02:13:07.347Z,16.97
2022-08-03T02:15:36.678Z,16.95
2022-08-03T02:18:07.158Z,16.90
2022-08-03T02:20:37.220Z,16.90
2022-08-03T02:23:06.110Z,16.94
2022-08-03T02:25:38.393Z,16.90
2022-08-03T02:28:12.108Z,16.82
2022-08-03T02:30:40.478Z,16.71
2022-08-03T02:33:11.933Z,16.66
2022-08-03T02:35:40.677Z,16.62
2022-08-03T02:38:09.818Z,16.59
2022-08-03T02:40:40.271Z,16.56
2022-08-03T02:43:16.730Z,16.52
2022-08-03T02:45:47.763Z,16.45
2022-08-03T02:48:19.523Z,16.37
2022-08-03T02:50:47.500Z,16.29
2022-08-03T02:53:17.757Z,16.15
2022-08-03T02:55:46.848Z,16.09
2022-08-03T02:58:17.037Z,16.05
2022-08-03T03:00:45.175Z,16.03
2022-08-03T03:03:13.101Z,16.04
2022-08-03T03:05:55.306Z,16.06
2022-08-03T03:08:28.432Z,16.05
2022-08-03T03:10:58.813Z,16.04
2022-08-03T03:13:28.372Z,16.00
2022-08-03T03:16:00.092Z,15.97
2022-08-03T03:18:32.958Z,15.96
2022-08-03T03:21:01.754Z,15.98
2022-08-03T03:23:30.335Z,16.00
2022-08-03T03:25:58.718Z,16.06
2022-08-03T03:28:26.490Z,16.15
2022-08-03T03:30:54.451Z,16.21
2022-08-03T03:33:22.758Z,16.23
2022-08-03T03:35:51.220Z,16.22
2022-08-03T03:38:19.635Z,16.21
2022-08-03T03:40:47.877Z,16.20
2022-08-03T03:43:15.128Z,16.15
2022-08-03T03:45:44.861Z,16.12
2022-08-03T03:48:11.892Z,15.98
2022-08-03T03:50:40.477Z,15.87
2022-08-03T03:53:12.383Z,15.79
2022-08-03T03:56:02.114Z,15.76
2022-08-03T03:58:27.733Z,15.76
2022-08-03T04:00:54.755Z,15.80
2022-08-03T04:03:21.727Z,15.83
2022-08-03T04:06:08.747Z,15.86
2022-08-03T04:08:54.363Z,15.80
2022-08-03T04:11:30.014Z,15.87
2022-08-03T04:14:06.043Z,15.96
2022-08-03T04:16:38.790Z,16.05
2022-08-03T04:19:13.658Z,16.12
2022-08-03T04:21:43.817Z,16.20
2022-08-03T04:24:13.184Z,16.23
2022-08-03T04:26:42.933Z,16.29
2022-08-03T04:29:11.687Z,16.38
2022-08-03T04:31:39.569Z,16.45
2022-08-03T04:34:07.347Z,16.51
2022-08-03T04:36:44.139Z,16.56
2022-08-03T04:39:16.576Z,16.64
2022-08-03T04:42:07.329Z,16.74
2022-08-03T04:44:37.320Z,16.83
2022-08-03T04:47:04.182Z,16.92
2022-08-03T04:49:31.986Z,17.01
2022-08-03T04:51:59.611Z,17.09
2022-08-03T04:54:26.625Z,17.17
2022-08-03T04:56:53.349Z,17.25
2022-08-03T04:59:20.316Z,17.35
2022-08-03T05:01:47.328Z,17.50
2022-08-03T05:04:14.146Z,17.65
2022-08-03T05:06:47.940Z,17.80
2022-08-03T05:09:15.885Z,17.92
2022-08-03T05:12:03.108Z,18.04
2022-08-03T05:14:29.869Z,18.15
2022-08-03T05:16:56.691Z,18.25
2022-08-03T05:19:23.554Z,18.36
2022-08-03T05:21:52.398Z,18.46
2022-08-03T05:24:19.831Z,18.59
2022-08-03T05:26:46.654Z,18.69
2022-08-03T05:29:13.475Z,18.81
2022-08-03T05:31:40.103Z,18.94
2022-08-03T05:34:07.949Z,19.05
2022-08-03T05:36:34.759Z,19.16
2022-08-03T05:39:02.971Z,19.27
2022-08-03T05:41:36.588Z,19.39
2022-08-03T05:44:04.996Z,19.47
2022-08-03T05:46:32.784Z,19.55
2022-08-03T05:49:00.336Z,19.67
2022-08-03T05:51:28.622Z,19.78
2022-08-03T05:53:55.544Z,19.93
2022-08-03T05:56:26.789Z,20.08
2022-08-03T05:58:53.737Z,20.19
2022-08-03T06:01:21.962Z,20.32
2022-08-03T06:03:50.397Z,20.43
2022-08-03T06:06:17.723Z,20.47
2022-08-03T06:08:45.842Z,20.58
2022-08-03T06:11:13.080Z,20.72
2022-08-03T06:13:40.743Z,20.90
2022-08-03T06:16:08.219Z,21.05
2022-08-03T06:18:36.196Z,21.12
2022-08-03T06:21:15.654Z,21.21
2022-08-03T06:23:55.102Z,21.34
2022-08-03T06:26:26.563Z,21.49
2022-08-03T06:28:54.736Z,21.64
2022-08-03T06:31:25.608Z,21.81
2022-08-03T06:34:34.507Z,22.19
2022-08-03T06:36:39.487Z,22.58
2022-08-03T06:39:08.320Z,22.68
2022-08-03T06:41:37.274Z,22.71
2022-08-03T06:44:08.523Z,22.90
2022-08-03T06:46:37.516Z,23.12
2022-08-03T06:49:04.460Z,23.18
2022-08-03T06:52:06.209Z,23.31
2022-08-03T06:54:18.633Z,23.65
2022-08-03T06:56:45.340Z,24.08
2022-08-03T07:00:06.008Z,24.20
2022-08-03T07:01:59.339Z,24.16
2022-08-03T07:04:26.423Z,24.28
2022-08-03T07:06:54.776Z,24.55
2022-08-03T07:09:22.227Z,24.99
2022-08-03T07:11:49.028Z,25.37
2022-08-03T07:14:15.878Z,25.80
2022-08-03T07:16:42.965Z,25.93
2022-08-03T07:19:10.118Z,26.26
2022-08-03T07:21:37.081Z,26.57
2022-08-03T07:24:04.525Z,26.22
2022-08-03T07:26:31.477Z,26.24
2022-08-03T07:29:00.364Z,26.50
2022-08-03T07:31:27.326Z,27.04
2022-08-03T07:34:01.323Z,27.32
2022-08-03T07:36:28.270Z,27.22
2022-08-03T07:38:55.013Z,27.22
2022-08-03T07:41:21.960Z,27.16
2022-08-03T07:43:48.805Z,27.11
2022-08-03T07:46:15.937Z,27.04
2022-08-03T07:48:43.017Z,27.14
2022-08-03T07:51:09.785Z,27.04
2022-08-03T07:53:41.402Z,26.85
2022-08-03T07:56:16.209Z,26.61
2022-08-03T07:58:43.179Z,26.54
2022-08-03T08:01:10.151Z,26.27
2022-08-03T08:03:52.877Z,26.16
2022-08-03T08:06:21.335Z,26.09
2022-08-03T08:08:48.306Z,25.90
2022-08-03T08:11:15.331Z,25.95
2022-08-03T08:13:42.107Z,25.89
2022-08-03T08:16:09.119Z,25.91
2022-08-03T08:18:36.169Z,25.73
2022-08-03T08:21:03.133Z,25.67
2022-08-03T08:23:32.602Z,25.58
2022-08-03T08:26:08.603Z,25.58
2022-08-03T08:28:35.262Z,25.59
2022-08-03T08:31:02.285Z,25.66
2022-08-03T08:33:42.039Z,25.70
2022-08-03T08:36:15.664Z,25.73
2022-08-03T08:38:44.668Z,25.58
2022-08-03T08:41:13.507Z,25.60
2022-08-03T08:43:41.369Z,25.62
2022-08-03T08:46:12.028Z,25.70
2022-08-03T08:48:41.519Z,25.77
2022-08-03T08:51:11.323Z,25.85
2022-08-03T08:53:41.401Z,26.02
2022-08-03T08:56:15.004Z,26.09
2022-08-03T08:58:44.083Z,26.18
2022-08-03T09:01:11.063Z,26.34
2022-08-03T09:03:38.559Z,26.41
2022-08-03T09:06:06.230Z,26.61
2022-08-03T09:08:33.441Z,27.06
2022-08-03T09:11:01.453Z,27.50
2022-08-03T09:13:30.033Z,27.83
2022-08-03T09:16:21.047Z,28.28
2022-08-03T09:18:51.475Z,28.59
2022-08-03T09:21:32.024Z,28.76
2022-08-03T09:24:03.400Z,29.05
2022-08-03T09:26:34.230Z,29.23
2022-08-03T09:29:13.919Z,29.22
2022-08-03T09:31:45.692Z,29.14
2022-08-03T09:34:15.072Z,29.02
2022-08-03T09:36:42.803Z,28.92
2022-08-03T09:39:15.523Z,28.58
2022-08-03T09:41:48.804Z,28.51
2022-08-03T09:44:24.391Z,28.37
2022-08-03T09:46:56.457Z,28.32
2022-08-03T09:49:24.293Z,28.27
2022-08-03T09:52:37.945Z,27.69
2022-08-03T09:54:39.791Z,27.68
2022-08-03T09:57:07.126Z,27.60
2022-08-03T09:59:34.890Z,27.35
2022-08-03T10:02:01.977Z,27.26
2022-08-03T10:04:29.201Z,27.18
2022-08-03T10:07:08.873Z,27.27
2022-08-03T10:09:54.365Z,27.36
2022-08-03T10:12:21.503Z,27.30
2022-08-03T10:14:48.343Z,27.18
2022-08-03T10:17:15.414Z,27.15
2022-08-03T10:19:42.583Z,27.14
2022-08-03T10:22:23.289Z,27.10
2022-08-03T10:25:06.129Z,27.02
2022-08-03T10:27:39.735Z,26.96
2022-08-03T10:30:07.879Z,26.89
2022-08-03T10:32:41.775Z,27.01
2022-08-03T10:35:19.782Z,26.91
2022-08-03T10:38:09.279Z,27.12
2022-08-03T10:40:55.910Z,27.20
2022-08-03T10:43:40.981Z,27.31
2022-08-03T10:46:07.997Z,27.36
2022-08-03T10:48:36.493Z,27.40
2022-08-03T10:51:04.367Z,27.52
2022-08-03T10:53:41.734Z,27.59
2022-08-03T10:56:51.760Z,27.62
2022-08-03T10:59:39.789Z,27.71
2022-08-03T11:02:09.370Z,27.77
2022-08-03T11:04:36.057Z,27.79
2022-08-03T11:07:23.779Z,27.77
2022-08-03T11:09:51.836Z,27.72
2022-08-03T11:12:32.951Z,27.76
2022-08-03T11:15:03.737Z,27.86
2022-08-03T11:17:33.285Z,27.91
2022-08-03T11:20:00.122Z,27.86
2022-08-03T11:22:51.225Z,27.96
2022-08-03T11:25:53.941Z,27.99
2022-08-03T11:28:24.774Z,27.90
2022-08-03T11:30:52.304Z,27.87
2022-08-03T11:33:30.179Z,27.93
2022-08-03T11:36:01.936Z,27.99
2022-08-03T11:38:29.109Z,28.09
2022-08-03T11:40:55.859Z,28.09
2022-08-03T11:43:30.682Z,28.08
2022-08-03T11:46:03.861Z,28.12
2022-08-03T11:48:33.473Z,28.13
2022-08-03T11:51:07.041Z,28.21
2022-08-03T11:53:34.012Z,28.23
2022-08-03T11:56:13.089Z,28.30
2022-08-03T11:59:18.698Z,28.37
2022-08-03T12:01:37.279Z,28.26
2022-08-03T12:04:06.039Z,28.29
2022-08-03T12:06:53.167Z,28.26
2022-08-03T12:09:21.355Z,28.24
2022-08-03T12:11:51.069Z,28.27
2022-08-03T12:14:48.637Z,28.35
2022-08-03T12:17:17.115Z,28.28
2022-08-03T12:19:45.002Z,28.20
2022-08-03T12:22:13.024Z,28.28
2022-08-03T12:24:46.601Z,28.32
2022-08-03T12:27:24.640Z,28.37
2022-08-03T12:29:57.233Z,28.34
2022-08-03T12:32:27.888Z,28.31
2022-08-03T12:35:00.033Z,28.30
2022-08-03T12:37:27.907Z,28.34
2022-08-03T12:40:02.163Z,28.44
2022-08-03T12:42:37.197Z,28.54
2022-08-03T12:45:31.489Z,28.68
2022-08-03T12:48:02.170Z,28.73
2022-08-03T12:50:31.337Z,28.69
2022-08-03T12:53:00.692Z,28.69
2022-08-03T12:55:33.367Z,28.67
2022-08-03T12:58:35.130Z,28.58
2022-08-03T13:01:09.985Z,28.42
2022-08-03T13:03:43.451Z,28.49
2022-08-03T13:06:21.779Z,28.50
2022-08-03T13:08:50.702Z,28.51
2022-08-03T13:11:57.913Z,28.47
2022-08-03T13:14:23.751Z,28.45
2022-08-03T13:16:51.781Z,28.25
2022-08-03T13:19:18.714Z,28.24
2022-08-03T13:21:53.614Z,28.40
2022-08-03T13:24:32.071Z,28.46
2022-08-03T13:26:59.957Z,28.51
2022-08-03T13:29:26.683Z,28.59
2022-08-03T13:31:53.638Z,28.50
2022-08-03T13:34:23.583Z,28.44
2022-08-03T13:37:10.130Z,28.51
2022-08-03T13:39:57.381Z,28.61
2022-08-03T13:42:25.665Z,28.68
2022-08-03T13:44:52.688Z,28.72
2022-08-03T13:47:20.215Z,28.70
2022-08-03T13:49:56.973Z,28.66
2022-08-03T13:52:27.971Z,28.47
2022-08-03T13:54:54.935Z,28.42
2022-08-03T13:58:18.927Z,28.54
2022-08-03T14:00:09.595Z,28.64
2022-08-03T14:02:36.499Z,28.55
2022-08-03T14:05:03.794Z,28.40
2022-08-03T14:07:30.844Z,28.13
2022-08-03T14:09:57.899Z,27.82
2022-08-03T14:12:24.878Z,27.74
2022-08-03T14:14:51.657Z,27.63
2022-08-03T14:17:19.198Z,27.56
2022-08-03T14:19:52.916Z,27.63
2022-08-03T14:22:21.409Z,27.79
2022-08-03T14:24:49.206Z,27.82
2022-08-03T14:27:16.699Z,27.96
2022-08-03T14:29:43.424Z,28.04
2022-08-03T14:32:13.298Z,27.99
2022-08-03T14:34:41.005Z,27.95
2022-08-03T14:37:07.930Z,27.94
2022-08-03T14:42:23.361Z,27.73
2022-08-03T14:44:50.378Z,27.65
2022-08-03T14:47:17.172Z,27.67
2022-08-03T14:50:36.560Z,27.56
2022-08-03T14:52:32.129Z,27.52
2022-08-03T14:54:59.772Z,27.52
2022-08-03T14:57:27.444Z,27.44
2022-08-03T14:59:56.712Z,27.32
2022-08-03T15:02:25.316Z,27.19
2022-08-03T15:04:52.671Z,27.09
2022-08-03T15:07:20.064Z,26.98
2022-08-03T15:09:47.151Z,26.89
2022-08-03T15:12:14.136Z,26.87
2022-08-03T15:14:41.117Z,26.83
2022-08-03T15:17:08.344Z,26.74
2022-08-03T15:20:02.795Z,26.54
2022-08-03T15:22:24.957Z,26.43
2022-08-03T15:24:53.477Z,26.36
2022-08-03T15:27:20.706Z,26.29
2022-08-03T15:30:05.129Z,26.20
2022-08-03T15:32:35.693Z,26.25
2022-08-03T15:35:02.664Z,26.28
2022-08-03T15:37:29.453Z,26.34
2022-08-03T15:40:00.118Z,26.43
2022-08-03T15:42:30.899Z,26.48
2022-08-03T15:44:58.139Z,26.53
2022-08-03T15:47:25.856Z,26.57
2022-08-03T15:49:52.720Z,26.58
2022-08-03T15:52:19.561Z,26.60
2022-08-03T15:54:46.365Z,26.62
2022-08-03T15:57:13.188Z,26.64
2022-08-03T15:59:40.198Z,26.62
2022-08-03T16:02:07.158Z,26.61
2022-08-03T16:04:34.090Z,26.56
2022-08-03T16:07:00.936Z,26.48
2022-08-03T16:09:43.482Z,26.50
2022-08-03T16:12:15.495Z,26.56
2022-08-03T16:14:52.386Z,26.58
2022-08-03T16:17:21.045Z,26.53
2022-08-03T16:19:48.144Z,26.52
2022-08-03T16:22:17.026Z,26.50
2022-08-03T16:24:46.947Z,26.40
2022-08-03T16:27:37.221Z,26.40
2022-08-03T16:30:01.762Z,26.35
2022-08-03T16:32:28.776Z,26.32
2022-08-03T16:34:55.824Z,26.29
2022-08-03T16:37:38.078Z,26.26
2022-08-03T16:40:17.430Z,26.23
2022-08-03T16:42:47.187Z,26.19
2022-08-03T16:45:14.579Z,26.18
2022-08-03T16:47:41.504Z,26.16
2022-08-03T16:50:15.561Z,26.08
2022-08-03T16:52:47.114Z,26.01
2022-08-03T16:55:15.827Z,25.97
2022-08-03T16:57:59.291Z,25.92
2022-08-03T17:00:33.735Z,25.86
2022-08-03T17:03:12.574Z,25.81
2022-08-03T17:05:49.799Z,25.73
2022-08-03T17:08:26.363Z,25.68
2022-08-03T17:10:55.482Z,25.62
2022-08-03T17:13:22.998Z,25.57
2022-08-03T17:16:07.551Z,25.53
2022-08-03T17:18:47.314Z,25.46
2022-08-03T17:21:15.582Z,25.36
2022-08-03T17:23:58.247Z,25.31
2022-08-03T17:26:30.349Z,25.22
2022-08-03T17:29:12.925Z,25.16
2022-08-03T17:31:49.055Z,25.09
2022-08-03T17:34:18.899Z,24.98
2022-08-03T17:37:03.751Z,24.89
2022-08-03T17:39:57.052Z,24.80
2022-08-03T17:42:30.679Z,24.69
2022-08-03T17:45:02.267Z,24.59
2022-08-03T17:47:41.155Z,24.52
2022-08-03T17:50:24.191Z,24.44
2022-08-03T17:53:07.702Z,24.35
2022-08-03T17:55:56.227Z,24.26
2022-08-03T17:58:57.593Z,24.17
2022-08-03T18:02:02.076Z,24.07
2022-08-03T18:04:41.569Z,23.98
2022-08-03T18:07:12.702Z,23.94
2022-08-03T18:10:04.349Z,23.89
2022-08-03T18:12:53.028Z,23.79
2022-08-03T18:15:26.235Z,23.69
2022-08-03T18:18:02.253Z,23.58
2022-08-03T18:20:45.788Z,23.45
2022-08-03T18:23:24.755Z,23.28
2022-08-03T18:26:07.527Z,23.18
2022-08-03T18:28:39.104Z,23.04
2022-08-03T18:31:12.129Z,22.97
2022-08-03T18:36:30.299Z,22.78
2022-08-03T18:39:01.662Z,22.61
2022-08-03T18:41:34.646Z,22.49
2022-08-03T18:44:08.146Z,22.43
2022-08-03T18:47:07.284Z,22.35
2022-08-03T18:50:07.710Z,22.20
2022-08-03T18:52:45.915Z,22.09
2022-08-03T18:56:01.681Z,22.01
2022-08-03T18:59:30.057Z,21.92
2022-08-03T19:02:33.622Z,21.80
2022-08-03T19:05:06.554Z,21.74
2022-08-03T19:07:36.420Z,21.64
2022-08-03T19:10:09.340Z,21.54
2022-08-03T19:12:39.991Z,21.50
2022-08-03T19:15:13.439Z,21.44
2022-08-03T19:17:53.621Z,21.32
2022-08-03T19:20:23.147Z,21.24
2022-08-03T19:22:53.503Z,21.17
2022-08-03T19:25:35.049Z,21.16
2022-08-03T19:28:07.381Z,21.07
2022-08-03T19:30:39.091Z,20.93
2022-08-03T19:33:09.692Z,20.91
2022-08-03T19:35:51.755Z,20.89
2022-08-03T19:38:28.186Z,20.76
2022-08-03T19:40:59.852Z,20.75
2022-08-03T19:43:52.763Z,20.71
2022-08-03T19:46:27.698Z,20.65
2022-08-03T19:49:10.691Z,20.57
2022-08-03T19:52:01.628Z,20.47
2022-08-03T19:54:53.919Z,20.43
2022-08-03T19:57:24.567Z,20.39
2022-08-03T19:59:53.109Z,20.33
2022-08-03T20:02:25.555Z,20.28
2022-08-03T20:04:56.610Z,20.24
2022-08-03T20:07:25.410Z,20.18
2022-08-03T20:09:54.512Z,20.10
2022-08-03T20:12:28.844Z,20.06
2022-08-03T20:14:57.505Z,19.99
2022-08-03T20:17:55.029Z,19.89
2022-08-03T20:20:13.236Z,19.80
2022-08-03T20:22:45.541Z,19.69
2022-08-03T20:25:16.279Z,19.56
2022-08-03T20:28:07.686Z,19.54
2022-08-03T20:30:39.226Z,19.54
2022-08-03T20:33:09.542Z,19.49
2022-08-03T20:35:36.276Z,19.46
2022-08-03T20:38:03.610Z,19.40
2022-08-03T20:40:30.771Z,19.43
2022-08-03T20:42:59.258Z,19.45
2022-08-03T20:46:00.027Z,19.39
2022-08-03T20:48:17.979Z,19.37
2022-08-03T20:50:49.200Z,19.31
2022-08-03T20:53:57.012Z,19.25
2022-08-03T20:56:04.896Z,19.21
2022-08-03T20:58:33.177Z,19.16
2022-08-03T21:01:00.823Z,19.15
2022-08-03T21:03:40.663Z,19.14
2022-08-03T21:06:18.829Z,19.13
2022-08-03T21:09:04.808Z,19.04
2022-08-03T21:11:41.982Z,19.03
2022-08-03T21:12:58.400Z,22.89
2022-08-03T21:14:18.287Z,19.00
2022-08-03T21:16:47.947Z,18.98
2022-08-03T21:19:17.243Z,18.95
2022-08-03T21:21:46.160Z,18.90
2022-08-03T21:24:14.619Z,18.91
2022-08-03T21:26:43.857Z,18.90
2022-08-03T21:29:13.752Z,18.90
2022-08-03T21:31:40.708Z,18.87
2022-08-03T21:34:07.656Z,18.81
2022-08-03T21:36:36.961Z,18.76
2022-08-03T21:39:07.480Z,18.71
2022-08-03T21:41:37.302Z,18.68
2022-08-03T21:44:05.739Z,18.66
2022-08-03T21:46:40.074Z,18.63
2022-08-03T21:50:04.514Z,18.60
2022-08-03T21:52:00.098Z,18.59
2022-08-03T21:54:40.552Z,18.61
2022-08-03T21:57:23.913Z,18.59
2022-08-03T21:59:56.426Z,18.53
2022-08-03T22:02:28.846Z,18.47
2022-08-03T22:04:58.699Z,18.43
2022-08-03T22:07:28.588Z,18.40
2022-08-03T22:09:57.993Z,18.37
2022-08-03T22:12:27.011Z,18.33
2022-08-03T22:15:00.269Z,18.30
2022-08-03T22:17:54.573Z,18.28
2022-08-03T22:20:19.045Z,18.25
2022-08-03T22:22:52.168Z,18.22
2022-08-03T22:25:35.133Z,18.23
2022-08-03T22:28:07.946Z,18.24
2022-08-03T22:30:35.730Z,18.23
2022-08-03T22:33:05.242Z,18.24
2022-08-03T22:35:50.992Z,18.20
2022-08-03T22:38:18.813Z,18.18
2022-08-03T22:40:50.258Z,18.15
2022-08-03T22:43:17.378Z,18.12
2022-08-03T22:46:11.253Z,18.06
2022-08-03T22:48:41.053Z,18.07
2022-08-03T22:51:09.150Z,18.13
2022-08-03T22:53:36.495Z,18.15
2022-08-03T22:56:03.977Z,18.12
2022-08-03T22:58:30.903Z,18.11
2022-08-03T23:01:03.298Z,18.08
2022-08-03T23:03:59.782Z,18.07
2022-08-03T23:06:23.314Z,18.07
2022-08-03T23:08:50.661Z,18.01
2022-08-03T23:11:18.723Z,17.94
2022-08-03T23:13:53.856Z,17.91
2022-08-03T23:16:28.857Z,17.92
2022-08-03T23:18:59.228Z,17.91
2022-08-03T23:22:00.592Z,17.86
2022-08-03T23:24:25.295Z,17.81
2022-08-03T23:26:58.496Z,17.79
2022-08-03T23:29:28.661Z,17.76
2022-08-03T23:31:57.001Z,17.74
2022-08-03T23:34:43.136Z,17.67
2022-08-03T23:37:13.839Z,17.55
2022-08-03T23:39:46.779Z,17.48
2022-08-03T23:42:17.185Z,17.41
2022-08-03T23:44:45.326Z,17.37
2022-08-03T23:47:13.460Z,17.31
2022-08-03T23:49:40.845Z,17.27
2022-08-03T23:52:33.054Z,17.20
2022-08-03T23:55:28.060Z,17.09
2022-08-03T23:58:11.316Z,17.09
